Time;durP1;ratioP1;P1;durP2;ratioP2;P2;SDS_P1;SDS_P2;PMS_P1;PMS_P2;Temp;Humidity;BMP_temperature;BMP_pressure;BME280_temperature;BME280_humidity;BME280_pressure;Samples;Min_cycle;Max_cycle;Signal;HPM_P1;HPM_P2
2022/08/30 00:03:06;;;;;;;0.73;0.40;;;16.40;99.90;;;;;;5015177;28;20552;-69
2022/08/30 00:05:32;;;;;;;3.65;1.15;;;16.40;99.90;;;;;;5015517;28;21087;-69
2022/08/30 00:08:02;;;;;;;0.68;0.60;;;16.20;99.90;;;;;;5012613;28;20060;-69
2022/08/30 00:10:29;;;;;;;0.73;0.68;;;16.30;99.90;;;;;;5014202;28;20046;-69
2022/08/30 00:12:57;;;;;;;6.63;1.35;;;16.20;99.90;;;;;;5014646;28;20124;-68
2022/08/30 00:15:24;;;;;;;1.05;0.75;;;16.20;99.90;;;;;;5014423;28;20030;-70
2022/08/30 00:17:51;;;;;;;11.82;1.17;;;16.20;99.90;;;;;;5015258;28;20024;-70
2022/08/30 00:20:23;;;;;;;4.38;1.08;;;16.10;99.90;;;;;;5014915;28;20228;-68
2022/08/30 00:22:50;;;;;;;1.85;0.90;;;16.10;99.90;;;;;;5014743;28;20022;-68
2022/08/30 00:25:16;;;;;;;1.38;0.88;;;16.00;99.90;;;;;;5014421;28;20034;-69
2022/08/30 00:27:42;;;;;;;4.53;1.15;;;16.00;99.90;;;;;;5014296;28;20065;-68
2022/08/30 00:30:09;;;;;;;2.30;0.75;;;16.00;99.90;;;;;;5014381;28;20018;-69
2022/08/30 00:32:35;;;;;;;4.90;0.60;;;16.00;99.90;;;;;;5014625;28;20072;-68
2022/08/30 00:35:01;;;;;;;0.60;0.47;;;15.90;99.90;;;;;;5014523;28;20114;-69
2022/08/30 00:37:29;;;;;;;1.08;0.55;;;15.90;99.90;;;;;;5014544;28;20423;-69
2022/08/30 00:39:56;;;;;;;3.00;0.73;;;15.90;99.90;;;;;;5014115;28;20030;-68
2022/08/30 00:42:21;;;;;;;1.05;0.50;;;15.80;99.90;;;;;;5014387;28;20026;-69
2022/08/30 00:44:52;;;;;;;1.83;0.82;;;15.80;99.90;;;;;;5014410;28;20121;-68
2022/08/30 00:47:18;;;;;;;0.55;0.55;;;15.80;99.90;;;;;;5014529;28;20050;-67
2022/08/30 00:49:48;;;;;;;0.55;0.52;;;15.80;99.90;;;;;;5014152;28;20030;-68
2022/08/30 00:52:16;;;;;;;2.80;0.93;;;15.60;99.90;;;;;;5013725;28;20049;-67
2022/08/30 00:54:44;;;;;;;0.63;0.47;;;15.70;99.90;;;;;;5013527;28;20550;-67
2022/08/30 00:57:11;;;;;;;3.33;1.10;;;15.60;99.90;;;;;;5012180;28;20030;-68
2022/08/30 00:59:37;;;;;;;0.50;0.50;;;15.70;99.90;;;;;;5014118;28;20034;-68
2022/08/30 01:02:03;;;;;;;2.78;1.08;;;15.60;99.90;;;;;;5013550;28;20028;-68
2022/08/30 01:04:30;;;;;;;0.70;0.50;;;15.60;99.90;;;;;;5014095;28;20042;-68
2022/08/30 01:06:57;;;;;;;4.38;0.88;;;15.60;99.90;;;;;;5013701;28;20034;-67
2022/08/30 01:09:23;;;;;;;0.93;0.63;;;15.60;99.90;;;;;;5013550;28;20033;-68
2022/08/30 01:11:49;;;;;;;2.85;1.08;;;15.60;99.90;;;;;;5013332;28;20047;-69
2022/08/30 01:14:16;;;;;;;0.57;0.40;;;15.60;99.90;;;;;;5010863;28;20065;-69
2022/08/30 01:16:43;;;;;;;1.17;0.77;;;15.60;99.90;;;;;;5013618;28;20479;-68
2022/08/30 01:19:30;;;;;;;18.02;1.05;;;15.60;99.90;;;;;;5013738;28;20034;-68
2022/08/30 01:22:03;;;;;;;3.25;0.80;;;15.50;99.90;;;;;;5013582;28;20056;-68
2022/08/30 01:24:31;;;;;;;2.38;0.90;;;15.40;99.90;;;;;;5012406;28;20541;-70
2022/08/30 01:26:57;;;;;;;0.80;0.57;;;15.40;99.90;;;;;;5013041;28;20041;-69
2022/08/30 01:29:24;;;;;;;0.80;0.57;;;15.30;99.90;;;;;;5013850;28;20060;-70
2022/08/30 01:31:51;;;;;;;20.13;0.77;;;15.30;99.90;;;;;;5013240;28;20090;-69
2022/08/30 01:34:16;;;;;;;1.85;0.70;;;15.30;99.90;;;;;;5013559;28;20041;-69
2022/08/30 01:36:46;;;;;;;2.15;1.23;;;15.20;99.90;;;;;;5013263;28;20714;-68
2022/08/30 01:39:15;;;;;;;1.58;0.88;;;15.20;99.90;;;;;;5012928;28;20026;-68
2022/08/30 01:41:40;;;;;;;3.33;0.95;;;15.20;99.90;;;;;;5013035;28;20604;-68
2022/08/30 01:44:09;;;;;;;1.77;1.13;;;15.20;99.90;;;;;;5013082;28;20058;-68
2022/08/30 01:46:39;;;;;;;1.08;0.57;;;15.20;99.90;;;;;;5012338;28;20113;-68
2022/08/30 01:49:11;;;;;;;2.95;1.42;;;15.20;99.90;;;;;;5013370;28;20026;-70
2022/08/30 01:51:38;;;;;;;5.78;1.35;;;15.20;99.90;;;;;;5012912;28;20117;-68
2022/08/30 01:54:04;;;;;;;3.67;0.85;;;15.20;99.90;;;;;;5012746;28;20023;-69
2022/08/30 01:56:30;;;;;;;1.35;0.90;;;15.10;99.90;;;;;;5012364;28;20018;-70
2022/08/30 01:58:56;;;;;;;2.70;0.82;;;15.20;99.90;;;;;;5012908;28;20034;-69
2022/08/30 02:01:27;;;;;;;0.52;0.47;;;15.10;99.90;;;;;;5013202;28;20030;-70
2022/08/30 02:03:55;;;;;;;4.88;0.57;;;15.10;99.90;;;;;;5012661;28;20038;-70
2022/08/30 02:06:21;;;;;;;1.15;0.55;;;15.10;99.90;;;;;;5012748;28;20037;-69
2022/08/30 02:08:48;;;;;;;0.88;0.65;;;15.00;99.90;;;;;;5012123;28;20041;-69
2022/08/30 02:11:15;;;;;;;7.38;0.77;;;15.10;99.90;;;;;;5012600;28;20049;-68
2022/08/30 02:13:42;;;;;;;1.00;0.70;;;15.10;99.90;;;;;;5011670;28;20469;-69
2022/08/30 02:16:10;;;;;;;1.05;0.70;;;15.00;99.90;;;;;;5012427;28;20378;-69
2022/08/30 02:18:38;;;;;;;1.27;0.60;;;15.00;99.90;;;;;;5012331;28;20026;-68
2022/08/30 02:21:04;;;;;;;2.75;0.60;;;15.00;99.90;;;;;;5011900;28;20529;-69
2022/08/30 02:23:30;;;;;;;0.55;0.43;;;14.90;99.90;;;;;;5012431;28;20042;-69
2022/08/30 02:25:55;;;;;;;1.10;0.68;;;14.90;99.90;;;;;;5012179;28;20038;-69
2022/08/30 02:28:22;;;;;;;0.30;0.30;;;15.00;99.90;;;;;;5012621;28;20061;-69
2022/08/30 02:30:48;;;;;;;3.55;0.55;;;14.90;99.90;;;;;;5011593;28;20030;-69
2022/08/30 02:33:14;;;;;;;4.30;0.52;;;14.90;99.90;;;;;;5012026;28;20026;-69
2022/08/30 02:35:40;;;;;;;1.35;0.90;;;14.90;99.90;;;;;;5011888;28;20034;-69
2022/08/30 02:38:06;;;;;;;1.02;0.60;;;14.90;99.90;;;;;;5012274;28;20360;-69
2022/08/30 02:40:32;;;;;;;1.42;0.82;;;14.80;99.90;;;;;;5011791;28;20090;-70
2022/08/30 02:42:58;;;;;;;1.73;0.90;;;14.90;99.90;;;;;;5012404;28;20025;-70
2022/08/30 02:45:24;;;;;;;0.63;0.32;;;14.90;99.90;;;;;;5012688;28;20044;-70
2022/08/30 02:47:52;;;;;;;0.85;0.63;;;14.90;99.90;;;;;;5012068;28;20046;-69
2022/08/30 02:50:18;;;;;;;2.70;0.98;;;14.90;99.90;;;;;;5011829;28;20018;-69
2022/08/30 02:52:44;;;;;;;3.55;0.70;;;14.90;99.90;;;;;;5012307;28;20704;-69
2022/08/30 02:55:09;;;;;;;4.30;1.10;;;14.80;99.90;;;;;;5010515;28;20033;-69
2022/08/30 02:57:36;;;;;;;1.23;0.80;;;14.90;99.90;;;;;;5011261;28;20033;-69
2022/08/30 03:00:05;;;;;;;2.78;0.90;;;14.90;99.90;;;;;;5010797;28;20489;-68
2022/08/30 03:02:31;;;;;;;1.73;0.70;;;14.80;99.90;;;;;;5011699;28;20082;-70
2022/08/30 03:04:57;;;;;;;1.08;0.70;;;14.80;99.90;;;;;;5011733;28;20065;-69
2022/08/30 03:07:23;;;;;;;1.23;0.70;;;14.90;99.90;;;;;;5012082;28;20030;-69
2022/08/30 03:09:48;;;;;;;4.88;1.08;;;14.90;99.90;;;;;;5012215;28;20068;-69
2022/08/30 03:12:14;;;;;;;1.60;0.90;;;14.90;99.90;;;;;;5011150;28;20788;-70
2022/08/30 03:14:40;;;;;;;0.90;0.65;;;14.90;99.90;;;;;;5011764;28;20038;-69
2022/08/30 03:17:07;;;;;;;2.17;0.80;;;14.90;99.90;;;;;;5011449;28;20035;-69
2022/08/30 03:19:35;;;;;;;3.08;1.13;;;14.90;99.90;;;;;;5011048;28;20395;-70
2022/08/30 03:22:01;;;;;;;3.00;0.70;;;15.00;99.90;;;;;;5011107;28;20058;-68
2022/08/30 03:24:26;;;;;;;2.40;0.80;;;15.00;99.90;;;;;;5011363;28;20034;-70
2022/08/30 03:26:52;;;;;;;0.95;0.70;;;15.00;99.90;;;;;;5011554;28;20057;-70
2022/08/30 03:29:18;;;;;;;1.77;0.95;;;15.00;99.90;;;;;;5011656;28;20034;-68
2022/08/30 03:31:44;;;;;;;1.35;0.73;;;15.10;99.90;;;;;;5011216;28;20079;-69
2022/08/30 03:34:09;;;;;;;0.98;0.70;;;15.10;99.90;;;;;;5010949;28;20444;-69
2022/08/30 03:36:37;;;;;;;9.05;0.80;;;15.10;99.90;;;;;;5011475;28;20030;-69
2022/08/30 03:39:04;;;;;;;1.17;0.68;;;15.10;99.90;;;;;;5010537;28;20027;-69
2022/08/30 03:41:31;;;;;;;0.57;0.43;;;15.10;99.90;;;;;;5011374;28;20885;-69
2022/08/30 03:44:00;;;;;;;2.05;0.82;;;15.10;99.90;;;;;;5011343;28;20091;-69
2022/08/30 03:46:27;;;;;;;1.60;0.90;;;15.20;99.90;;;;;;5011388;28;20056;-70
2022/08/30 03:48:57;;;;;;;3.90;0.93;;;15.20;99.90;;;;;;5011741;28;20027;-69
2022/08/30 03:51:23;;;;;;;1.58;0.70;;;15.20;99.90;;;;;;5011421;28;20022;-69
2022/08/30 03:53:49;;;;;;;1.45;0.93;;;15.20;99.90;;;;;;5011223;28;20470;-69
2022/08/30 03:56:16;;;;;;;0.80;0.45;;;15.20;99.90;;;;;;5011107;28;20035;-68
2022/08/30 03:58:42;;;;;;;0.77;0.43;;;15.20;99.90;;;;;;5010770;28;20142;-69
2022/08/30 04:01:07;;;;;;;4.47;0.80;;;15.10;99.90;;;;;;5010959;28;20062;-69
2022/08/30 04:03:33;;;;;;;1.13;0.80;;;15.10;99.90;;;;;;5011227;28;20022;-68
2022/08/30 04:05:59;;;;;;;3.20;1.15;;;15.10;99.90;;;;;;5010639;28;20098;-70
2022/08/30 04:08:26;;;;;;;1.42;0.70;;;15.10;99.90;;;;;;5009447;28;20022;-70
2022/08/30 04:10:53;;;;;;;3.40;0.90;;;15.10;99.90;;;;;;5011095;28;20092;-71
2022/08/30 04:13:19;;;;;;;4.75;1.17;;;15.00;99.90;;;;;;5011331;28;20050;-68
2022/08/30 04:15:45;;;;;;;1.48;1.02;;;15.00;99.90;;;;;;5011263;28;20029;-69
2022/08/30 04:18:11;;;;;;;1.98;1.40;;;14.90;99.90;;;;;;5011287;28;20030;-68
2022/08/30 04:20:38;;;;;;;5.45;1.00;;;14.90;99.90;;;;;;5010120;28;20027;-68
2022/08/30 04:23:06;;;;;;;1.35;0.90;;;14.90;99.90;;;;;;5010672;28;20090;-68
2022/08/30 04:25:33;;;;;;;1.23;0.85;;;14.90;99.90;;;;;;5010947;28;20034;-69
2022/08/30 04:27:58;;;;;;;2.33;0.80;;;14.90;99.90;;;;;;5010189;28;20030;-69
2022/08/30 04:30:24;;;;;;;1.05;0.75;;;14.90;99.90;;;;;;5011393;28;20033;-69
2022/08/30 04:32:52;;;;;;;1.15;0.77;;;14.80;99.90;;;;;;5014566;28;20061;-71
2022/08/30 04:35:18;;;;;;;1.17;1.05;;;14.80;99.90;;;;;;5013705;28;20036;-70
2022/08/30 04:37:44;;;;;;;3.15;0.95;;;14.80;99.90;;;;;;5013599;28;21059;-70
2022/08/30 04:40:10;;;;;;;3.03;1.20;;;14.90;99.90;;;;;;5013686;28;20042;-70
2022/08/30 04:42:37;;;;;;;1.80;1.10;;;14.80;99.90;;;;;;5014400;28;20037;-69
2022/08/30 04:45:13;;;;;;;4.93;1.35;;;14.80;99.90;;;;;;5013203;28;20042;-71
2022/08/30 04:47:40;;;;;;;2.03;1.33;;;14.80;99.90;;;;;;5012765;28;20037;-71
2022/08/30 04:50:08;;;;;;;1.08;0.80;;;14.80;99.90;;;;;;5013463;28;20049;-70
2022/08/30 04:52:34;;;;;;;2.47;1.17;;;14.70;99.90;;;;;;5013833;28;20018;-70
2022/08/30 04:55:00;;;;;;;1.52;0.70;;;14.70;99.90;;;;;;5014198;28;20023;-70
2022/08/30 04:57:28;;;;;;;1.10;0.50;;;14.70;99.90;;;;;;5014100;28;20041;-70
2022/08/30 04:59:54;;;;;;;1.63;0.88;;;14.60;99.90;;;;;;5011987;28;20037;-70
2022/08/30 05:02:20;;;;;;;3.72;1.00;;;14.60;99.90;;;;;;5013284;28;20038;-70
2022/08/30 05:07:31;;;;;;;3.67;1.15;;;14.70;99.90;;;;;;5013907;28;20041;-70
2022/08/30 05:09:57;;;;;;;1.42;0.77;;;14.80;99.90;;;;;;5012846;28;20087;-71
2022/08/30 05:12:24;;;;;;;14.00;1.10;;;14.70;99.90;;;;;;5013745;28;20192;-69
2022/08/30 05:14:53;;;;;;;3.10;1.20;;;14.80;99.90;;;;;;5012317;28;20084;-71
2022/08/30 05:17:18;;;;;;;0.82;0.70;;;14.70;99.90;;;;;;5010768;28;20030;-70
2022/08/30 05:19:44;;;;;;;6.22;1.02;;;14.80;99.90;;;;;;5013905;28;20058;-69
2022/08/30 05:22:10;;;;;;;0.82;0.65;;;14.80;99.90;;;;;;5013716;28;20042;-70
2022/08/30 05:24:35;;;;;;;2.03;0.98;;;14.80;99.90;;;;;;5009815;28;20049;-69
2022/08/30 05:27:02;;;;;;;4.00;0.88;;;14.90;99.90;;;;;;5013617;28;20482;-70
2022/08/30 05:29:29;;;;;;;2.05;0.90;;;15.00;99.90;;;;;;5009122;28;20056;-71
2022/08/30 05:31:55;;;;;;;1.95;1.08;;;15.10;99.90;;;;;;5009168;28;20030;-70
2022/08/30 05:34:22;;;;;;;1.50;0.80;;;15.10;99.90;;;;;;5010402;28;20057;-73
2022/08/30 05:36:47;;;;;;;2.35;1.10;;;15.10;99.90;;;;;;5013096;28;20038;-70
2022/08/30 05:39:13;;;;;;;2.10;0.77;;;15.10;99.90;;;;;;5013444;28;20049;-71
2022/08/30 05:41:39;;;;;;;1.35;0.82;;;15.20;99.90;;;;;;5012737;28;20056;-69
2022/08/30 05:44:07;;;;;;;1.25;0.95;;;15.30;99.90;;;;;;5010727;28;20054;-70
2022/08/30 05:46:33;;;;;;;3.45;1.23;;;15.30;99.90;;;;;;5011146;28;20052;-70
2022/08/30 05:49:03;;;;;;;1.52;0.85;;;15.30;99.90;;;;;;5011306;28;20109;-71
2022/08/30 05:51:31;;;;;;;0.70;0.43;;;15.30;99.90;;;;;;5011963;28;20076;-70
2022/08/30 05:53:59;;;;;;;1.10;0.75;;;15.40;99.90;;;;;;5011593;28;20049;-69
2022/08/30 05:56:29;;;;;;;3.38;1.20;;;15.50;99.90;;;;;;5012766;28;20018;-70
2022/08/30 05:58:55;;;;;;;4.65;1.33;;;15.50;99.90;;;;;;5012233;28;20089;-69
2022/08/30 06:01:22;;;;;;;2.85;1.08;;;15.50;99.90;;;;;;5012833;28;20143;-70
2022/08/30 06:03:49;;;;;;;1.70;0.73;;;15.60;99.90;;;;;;5012544;28;20034;-68
2022/08/30 06:06:15;;;;;;;1.20;0.63;;;15.50;99.90;;;;;;5012057;28;20030;-70
2022/08/30 06:08:44;;;;;;;0.85;0.60;;;15.70;99.90;;;;;;5011000;28;20030;-69
2022/08/30 06:11:11;;;;;;;3.05;0.77;;;15.50;99.90;;;;;;5010827;28;20145;-69
2022/08/30 06:13:36;;;;;;;3.55;1.00;;;15.70;99.90;;;;;;5011738;28;20026;-70
2022/08/30 06:16:02;;;;;;;2.97;1.60;;;15.70;99.90;;;;;;5012662;28;20077;-69
2022/08/30 06:18:30;;;;;;;7.85;1.33;;;15.60;99.90;;;;;;5012362;28;20038;-69
2022/08/30 06:20:55;;;;;;;1.95;0.80;;;15.60;99.90;;;;;;5012787;28;20026;-69
2022/08/30 06:23:22;;;;;;;0.70;0.63;;;15.50;99.90;;;;;;5012378;28;20066;-69
2022/08/30 06:25:48;;;;;;;2.58;0.77;;;15.50;99.90;;;;;;5012390;28;20030;-70
2022/08/30 06:28:14;;;;;;;1.00;0.63;;;15.50;99.90;;;;;;5010964;28;20026;-70
2022/08/30 06:30:41;;;;;;;2.45;1.05;;;15.50;99.90;;;;;;5011861;28;20704;-69
2022/08/30 06:33:08;;;;;;;1.08;0.70;;;15.50;99.90;;;;;;5011261;28;20061;-69
2022/08/30 06:35:34;;;;;;;0.68;0.57;;;15.50;99.90;;;;;;5002933;28;20411;-69
2022/08/30 06:38:00;;;;;;;1.40;0.70;;;15.50;99.90;;;;;;5010639;28;20037;-69
2022/08/30 06:40:26;;;;;;;1.95;0.80;;;15.60;99.90;;;;;;5010060;28;20044;-68
2022/08/30 06:42:53;;;;;;;0.73;0.50;;;15.60;99.90;;;;;;5012028;28;20025;-71
2022/08/30 06:45:20;;;;;;;1.42;0.60;;;15.60;99.90;;;;;;5009670;28;20052;-68
2022/08/30 06:47:46;;;;;;;0.88;0.60;;;15.60;99.90;;;;;;5009357;28;20034;-69
2022/08/30 06:50:13;;;;;;;1.27;0.68;;;15.70;99.90;;;;;;5009077;28;20030;-70
2022/08/30 06:52:44;;;;;;;2.50;1.10;;;15.70;99.90;;;;;;5009511;28;20041;-68
2022/08/30 06:55:12;;;;;;;7.25;0.73;;;15.80;99.90;;;;;;5011528;28;20535;-69
2022/08/30 06:57:38;;;;;;;3.17;0.80;;;15.80;99.90;;;;;;5009018;28;20045;-68
2022/08/30 07:00:07;;;;;;;2.67;0.90;;;15.80;99.90;;;;;;5010291;28;20073;-69
2022/08/30 07:02:32;;;;;;;4.47;0.77;;;15.80;99.90;;;;;;5009931;28;20049;-69
2022/08/30 07:04:58;;;;;;;3.33;0.80;;;15.80;99.90;;;;;;5010871;28;20033;-71
2022/08/30 07:07:23;;;;;;;3.10;1.05;;;15.80;99.90;;;;;;5010927;28;20085;-70
2022/08/30 07:09:50;;;;;;;1.35;0.85;;;15.90;99.90;;;;;;5010826;28;20022;-69
2022/08/30 07:12:16;;;;;;;1.50;0.80;;;15.80;99.90;;;;;;5009471;28;20074;-70
2022/08/30 07:14:41;;;;;;;1.58;0.90;;;15.80;99.90;;;;;;5012004;28;20027;-70
2022/08/30 07:19:53;;;;;;;2.15;0.75;;;15.90;99.90;;;;;;5012164;28;20041;-70
2022/08/30 07:22:20;;;;;;;1.25;0.82;;;16.00;99.90;;;;;;5010909;28;20131;-68
2022/08/30 07:24:47;;;;;;;0.88;0.50;;;16.00;99.90;;;;;;5011877;28;20045;-70
2022/08/30 07:27:13;;;;;;;1.98;1.00;;;16.00;99.90;;;;;;5008517;28;20042;-69
2022/08/30 07:29:39;;;;;;;0.73;0.35;;;16.00;99.90;;;;;;5010911;28;20021;-70
2022/08/30 07:32:06;;;;;;;0.75;0.60;;;16.00;99.90;;;;;;5012005;28;20034;-71
2022/08/30 07:34:32;;;;;;;2.88;0.90;;;16.00;99.90;;;;;;5011798;28;20053;-69
2022/08/30 07:36:57;;;;;;;1.08;0.47;;;16.10;99.90;;;;;;5009796;28;20061;-71
2022/08/30 07:39:24;;;;;;;20.67;0.95;;;16.10;99.90;;;;;;5010703;28;20022;-70
2022/08/30 07:41:50;;;;;;;2.63;0.90;;;16.20;99.90;;;;;;5011281;28;20026;-70
2022/08/30 07:44:16;;;;;;;2.15;0.95;;;16.20;99.90;;;;;;5011719;28;20511;-69
2022/08/30 07:46:42;;;;;;;8.07;1.27;;;16.30;99.90;;;;;;5011621;28;20033;-70
2022/08/30 07:49:09;;;;;;;2.22;0.80;;;16.30;99.90;;;;;;5009804;28;20084;-70
2022/08/30 07:51:36;;;;;;;3.80;0.85;;;16.30;99.90;;;;;;5011211;28;20042;-69
2022/08/30 07:54:02;;;;;;;1.38;0.70;;;16.50;99.90;;;;;;5011622;28;20033;-70
2022/08/30 07:56:28;;;;;;;2.90;0.73;;;16.40;99.90;;;;;;5007663;28;20030;-70
2022/08/30 07:58:56;;;;;;;1.55;0.70;;;16.50;99.90;;;;;;5008268;28;20068;-70
2022/08/30 08:01:23;;;;;;;7.63;0.70;;;16.60;99.90;;;;;;5008507;28;20104;-71
2022/08/30 08:03:49;;;;;;;2.28;0.55;;;16.60;99.90;;;;;;5010606;28;20049;-70
2022/08/30 08:06:17;;;;;;;1.70;0.50;;;16.60;99.90;;;;;;5013614;28;20027;-70
2022/08/30 08:08:44;;;;;;;0.98;0.68;;;16.60;99.90;;;;;;5012637;28;20123;-70
2022/08/30 08:11:19;;;;;;;3.72;0.80;;;16.60;99.90;;;;;;5013336;28;20057;-70
2022/08/30 08:13:46;;;;;;;1.73;0.85;;;16.50;99.90;;;;;;5014850;28;20025;-70
2022/08/30 08:16:12;;;;;;;1.70;0.88;;;16.60;99.90;;;;;;5014949;28;20664;-70
2022/08/30 08:18:37;;;;;;;1.50;0.70;;;16.70;99.90;;;;;;5012566;28;20130;-70
2022/08/30 08:21:03;;;;;;;6.82;1.10;;;16.80;99.90;;;;;;5013987;28;20101;-70
2022/08/30 08:23:29;;;;;;;1.40;0.68;;;16.90;99.90;;;;;;5014679;28;20056;-71
2022/08/30 08:25:55;;;;;;;0.70;0.57;;;17.00;99.90;;;;;;5014859;28;20487;-71
2022/08/30 08:28:22;;;;;;;0.90;0.55;;;17.10;99.90;;;;;;5014313;28;20030;-71
2022/08/30 08:30:48;;;;;;;1.25;0.85;;;17.20;99.90;;;;;;5013503;28;20033;-70
2022/08/30 08:33:15;;;;;;;4.88;0.50;;;17.30;99.90;;;;;;5014484;28;20084;-70
2022/08/30 08:35:41;;;;;;;1.63;0.70;;;17.60;99.90;;;;;;5014939;28;20054;-69
2022/08/30 08:38:17;;;;;;;0.68;0.38;;;17.70;99.90;;;;;;5008194;28;20038;-69
2022/08/30 08:40:54;;;;;;;1.52;0.50;;;17.90;99.90;;;;;;5009506;28;20053;-69
2022/08/30 08:43:24;;;;;;;0.82;0.55;;;18.00;99.90;;;;;;5011979;28;20144;-69
2022/08/30 08:45:59;;;;;;;1.10;0.80;;;18.10;99.90;;;;;;5013346;28;20034;-69
2022/08/30 08:48:40;;;;;;;1.45;0.82;;;18.30;99.90;;;;;;5011550;28;20022;-70
2022/08/30 08:54:43;;;;;;;8.80;0.68;;;18.50;99.90;;;;;;4941205;29;20042;-70
2022/08/30 08:57:09;;;;;;;0.45;0.40;;;18.70;99.90;;;;;;5011771;28;20042;-69
2022/08/30 08:59:36;;;;;;;2.60;0.50;;;18.90;99.90;;;;;;5013185;28;20026;-70
2022/08/30 09:02:27;;;;;;;2.30;1.05;;;19.00;99.90;;;;;;5010992;28;20030;-70
2022/08/30 09:04:57;;;;;;;0.95;0.75;;;19.10;99.90;;;;;;5011084;28;20072;-69
2022/08/30 09:07:31;;;;;;;0.43;0.40;;;19.20;99.90;;;;;;5010817;28;20106;-70
2022/08/30 09:09:59;;;;;;;0.93;0.68;;;19.20;99.90;;;;;;5012117;28;20427;-71
2022/08/30 09:12:26;;;;;;;1.23;0.80;;;19.30;99.90;;;;;;4994090;28;20083;-71
2022/08/30 09:15:21;;;;;;;1.45;0.68;;;19.30;99.90;;;;;;4993613;28;20755;-70
2022/08/30 09:18:03;;;;;;;1.30;0.75;;;19.50;99.90;;;;;;4990889;28;20621;-68
2022/08/30 09:20:42;;;;;;;2.80;0.95;;;19.50;99.90;;;;;;4994157;28;20101;-70
2022/08/30 09:23:22;;;;;;;1.95;1.10;;;19.50;99.90;;;;;;4993411;28;20073;-69
2022/08/30 09:26:02;;;;;;;0.85;0.40;;;19.60;99.90;;;;;;4992556;28;20098;-70
2022/08/30 09:28:34;;;;;;;0.57;0.50;;;19.60;99.90;;;;;;4993576;28;20050;-71
2022/08/30 09:31:16;;;;;;;0.52;0.25;;;19.70;99.90;;;;;;4993559;28;20062;-69
2022/08/30 09:33:53;;;;;;;1.98;1.02;;;19.80;99.90;;;;;;4993850;28;20054;-69
2022/08/30 09:36:27;;;;;;;0.73;0.50;;;19.90;99.90;;;;;;4993891;28;20050;-71
2022/08/30 09:38:58;;;;;;;;;;;20.00;99.90;;;;;;4991958;28;20046;-71
2022/08/30 09:41:41;;;;;;;4.65;0.70;;;20.00;99.90;;;;;;4991980;28;20012;-69
2022/08/30 09:44:16;;;;;;;0.90;0.52;;;20.10;99.90;;;;;;4991553;28;20046;-71
2022/08/30 09:46:46;;;;;;;0.63;0.40;;;20.20;99.90;;;;;;4990960;28;20044;-69
2022/08/30 09:49:30;;;;;;;0.63;0.50;;;20.30;99.90;;;;;;4992239;28;20042;-69
2022/08/30 09:52:11;;;;;;;5.65;0.75;;;20.30;99.90;;;;;;4992308;28;20479;-71
2022/08/30 09:54:59;;;;;;;0.47;0.35;;;20.20;99.90;;;;;;4991340;28;20070;-71
2022/08/30 09:57:37;;;;;;;10.68;1.00;;;20.30;99.90;;;;;;4981948;28;20065;-71
2022/08/30 10:00:18;;;;;;;0.38;0.35;;;20.40;99.90;;;;;;4991957;28;20038;-69
2022/08/30 10:02:57;;;;;;;0.40;0.22;;;20.40;99.90;;;;;;4989636;28;20062;-70
2022/08/30 10:05:54;;;;;;;1.73;0.60;;;20.50;99.90;;;;;;4990862;28;20030;-72
2022/08/30 10:08:26;;;;;;;2.45;0.90;;;20.60;99.90;;;;;;4996450;28;20058;-69
2022/08/30 10:11:04;;;;;;;1.77;1.02;;;20.80;99.90;;;;;;5000424;28;20561;-70
2022/08/30 10:14:04;;;;;;;0.77;0.50;;;21.10;99.90;;;;;;5009647;28;20025;-70
2022/08/30 10:16:54;;;;;;;2.28;0.95;;;21.10;99.90;;;;;;5012621;28;20038;-71
2022/08/30 10:19:53;;;;;;;0.68;0.50;;;21.00;99.90;;;;;;5012741;28;20121;-73
2022/08/30 10:22:35;;;;;;;1.67;0.82;;;20.90;99.90;;;;;;5013258;28;20551;-69
2022/08/30 10:25:11;;;;;;;1.10;0.43;;;20.90;99.90;;;;;;5010877;28;20042;-69
2022/08/30 10:27:47;;;;;;;2.53;0.88;;;20.90;99.90;;;;;;5010646;28;20042;-70
2022/08/30 10:30:14;;;;;;;1.10;0.60;;;20.80;99.90;;;;;;5011178;28;20935;-69
2022/08/30 10:32:50;;;;;;;0.77;0.40;;;20.80;99.90;;;;;;5012076;28;20085;-69
2022/08/30 10:35:31;;;;;;;13.48;1.05;;;20.80;99.90;;;;;;5010370;28;20026;-70
2022/08/30 10:38:17;;;;;;;2.25;0.47;;;20.80;99.90;;;;;;5011813;28;20034;-71
2022/08/30 10:44:05;;;;;;;0.88;0.43;;;20.90;99.90;;;;;;5011042;28;20043;-71
2022/08/30 10:46:54;;;;;;;1.05;0.50;;;21.00;99.90;;;;;;5007853;28;20096;-70
2022/08/30 10:49:27;;;;;;;3.35;1.05;;;21.00;99.90;;;;;;5008735;28;20162;-71
2022/08/30 10:52:10;;;;;;;1.20;0.70;;;21.00;99.90;;;;;;5012438;28;20026;-70
2022/08/30 10:55:05;;;;;;;0.60;0.50;;;21.00;99.90;;;;;;5011966;28;20034;-69
2022/08/30 10:57:30;;;;;;;0.52;0.30;;;21.10;99.90;;;;;;5011996;28;20026;-70
2022/08/30 11:00:01;;;;;;;0.52;0.40;;;21.20;99.90;;;;;;5012274;28;20080;-70
2022/08/30 11:02:57;;;;;;;1.42;0.32;;;21.30;99.90;;;;;;5010490;28;20117;-70
2022/08/30 11:05:26;;;;;;;0.55;0.40;;;21.50;99.90;;;;;;5010845;28;20039;-69
2022/08/30 11:08:29;;;;;;;0.55;0.38;;;22.00;99.90;;;;;;5011749;28;20030;-70
2022/08/30 11:11:04;;;;;;;1.85;0.60;;;22.40;99.90;;;;;;5011876;28;20078;-70
2022/08/30 11:13:30;;;;;;;;;;;22.80;99.90;;;;;;5012306;28;20117;-71
2022/08/30 11:16:04;;;;;;;0.28;0.22;;;23.10;99.90;;;;;;5011768;28;19977;-71
2022/08/30 11:18:42;;;;;;;2.63;0.50;;;23.20;99.90;;;;;;5011019;28;20030;-70
2022/08/30 11:21:29;;;;;;;1.02;0.50;;;23.10;99.90;;;;;;5011990;28;20284;-71
2022/08/30 11:24:16;;;;;;;0.77;0.43;;;23.10;99.90;;;;;;5011722;28;20495;-70
2022/08/30 11:26:45;;;;;;;0.40;0.32;;;23.00;99.90;;;;;;5011571;28;20042;-71
2022/08/30 11:29:27;;;;;;;0.50;0.40;;;23.00;99.90;;;;;;5010715;28;20029;-70
2022/08/30 11:32:17;;;;;;;0.95;0.45;;;23.10;99.90;;;;;;5010427;28;20101;-70
2022/08/30 11:34:45;;;;;;;2.70;0.47;;;23.20;99.90;;;;;;5011597;28;20037;-70
2022/08/30 11:37:34;;;;;;;2.05;0.60;;;23.40;99.90;;;;;;5011880;28;20033;-70
2022/08/30 11:40:01;;;;;;;0.10;0.10;;;23.50;99.90;;;;;;5012195;28;20039;-70
2022/08/30 11:42:40;;;;;;;0.45;0.30;;;23.30;99.90;;;;;;5013781;28;20142;-70
2022/08/30 11:45:24;;;;;;;0.35;0.30;;;23.20;99.90;;;;;;5006063;28;20038;-69
2022/08/30 11:47:51;;;;;;;0.52;0.30;;;23.00;99.90;;;;;;5015538;28;20077;-69
2022/08/30 11:50:25;;;;;;;0.50;0.43;;;22.80;99.90;;;;;;5015410;28;20027;-70
2022/08/30 11:53:29;;;;;;;0.85;0.30;;;22.70;99.90;;;;;;5016146;28;20048;-71
2022/08/30 11:56:23;;;;;;;0.85;0.55;;;22.60;99.90;;;;;;5015144;28;20090;-71
2022/08/30 11:58:59;;;;;;;0.30;0.30;;;22.70;99.90;;;;;;5015795;28;20026;-70
2022/08/30 12:01:24;;;;;;;0.57;0.38;;;23.00;99.90;;;;;;5014517;28;20081;-70
2022/08/30 12:04:15;;;;;;;0.20;0.20;;;23.40;99.90;;;;;;5014175;28;20042;-70
2022/08/30 12:06:40;;;;;;;0.65;0.45;;;23.70;99.90;;;;;;5015048;28;20030;-70
2022/08/30 12:09:08;;;;;;;0.40;0.35;;;23.70;99.90;;;;;;5010676;28;20038;-71
2022/08/30 12:11:59;;;;;;;0.32;0.32;;;23.70;99.90;;;;;;5011925;28;20106;-71
2022/08/30 12:14:38;;;;;;;0.65;0.28;;;23.60;99.90;;;;;;5010600;28;20029;-71
2022/08/30 12:20:19;;;;;;;1.63;0.60;;;23.30;99.90;;;;;;5014856;28;20045;-70
2022/08/30 12:22:44;;;;;;;3.63;0.43;;;23.10;99.90;;;;;;5014166;28;20045;-71
2022/08/30 12:25:39;;;;;;;0.98;0.40;;;23.00;99.90;;;;;;5015172;28;20041;-73
2022/08/30 12:28:09;;;;;;;;;;;23.20;99.90;;;;;;5014778;28;20068;-71
2022/08/30 12:30:39;;;;;;;0.93;0.30;;;23.80;99.90;;;;;;5014298;28;19906;-69
2022/08/30 12:33:08;;;;;;;0.40;0.30;;;24.20;99.90;;;;;;5013515;28;20034;-71
2022/08/30 12:35:34;;;;;;;5.07;0.40;;;24.50;99.90;;;;;;5014233;28;20038;-69
2022/08/30 12:38:04;;;;;;;0.65;0.20;;;24.50;99.90;;;;;;5013847;28;20044;-70
2022/08/30 12:40:33;;;;;;;0.20;0.20;;;24.30;99.90;;;;;;5014021;28;20086;-70
2022/08/30 12:43:05;;;;;;;1.65;0.45;;;24.20;99.90;;;;;;5014056;28;20056;-69
2022/08/30 12:45:38;;;;;;;0.90;0.38;;;24.00;99.90;;;;;;5014539;28;20038;-70
2022/08/30 12:48:06;;;;;;;0.85;0.60;;;23.80;99.90;;;;;;5015025;28;20048;-69
2022/08/30 12:50:42;;;;;;;2.60;0.32;;;23.70;99.90;;;;;;5014386;28;20117;-71
2022/08/30 12:53:11;;;;;;;0.52;0.30;;;23.60;99.90;;;;;;5014141;28;20030;-70
2022/08/30 12:56:14;;;;;;;2.38;0.50;;;23.90;99.90;;;;;;5012398;28;20027;-69
2022/08/30 12:58:44;;;;;;;0.50;0.38;;;24.10;99.90;;;;;;4970360;28;20054;-69
2022/08/30 13:01:31;;;;;;;0.75;0.47;;;24.10;99.90;;;;;;4996987;28;20042;-70
2022/08/30 13:03:59;;;;;;;0.45;0.43;;;23.90;99.90;;;;;;5013474;28;20050;-70
2022/08/30 13:06:51;;;;;;;1.17;0.55;;;23.60;99.90;;;;;;5013206;28;20045;-72
2022/08/30 13:09:30;;;;;;;0.50;0.50;;;23.50;99.90;;;;;;4994384;28;20030;-69
2022/08/30 13:11:58;;;;;;;1.27;0.65;;;23.50;99.90;;;;;;5010747;28;20383;-69
2022/08/30 13:14:32;;;;;;;1.13;0.85;;;23.50;99.90;;;;;;5008830;28;20065;-70
2022/08/30 13:17:26;;;;;;;2.60;0.55;;;23.70;99.90;;;;;;5013224;28;20030;-69
2022/08/30 13:19:59;;;;;;;0.88;0.70;;;24.30;99.90;;;;;;5013552;28;20104;-71
2022/08/30 13:22:38;;;;;;;0.60;0.45;;;24.60;99.90;;;;;;5014145;28;20026;-70